Ampere, New Jersey
Current Conditions -  °F | °C
As of 11:51 AM on Friday 24 Oct 2014 (Local Time) from KEWR Reporting Station
Broken Clouds Broken Clouds  
Wind Chill: 60°   Ceiling: 3800
Heat Index: 60°   Visibility: 10mi
Dew Point: 43°   Wind: 18mph
Humidity: 53%   Direction: 340°NNW
Pressure: 29.82"   Gusts: 29mph
Location:  40.7716°N, 74.2073°W
Report Text: KEWR 241551Z 34016G25KT 10SM FEW034 BKN038 BKN150 16/06 A2982 RMK AO2 PK WND 32028/1532 SLP098 T01560061
Loading
Personal Weather Stations






























Interactive Weather Map New forecast layout! Learn more

10-Day Weather Forecast

Advertisements
Track Severe Weather on mobile